sensor_id;sensor_type;location;lat;lon;timestamp;temperature;humidity
24412;DHT22;12544;46.760;15.942;2023-04-25T00:01:04;9.60;99.90
24412;DHT22;12544;46.760;15.942;2023-04-25T00:03:31;9.70;99.90
24412;DHT22;12544;46.760;15.942;2023-04-25T00:05:58;9.70;99.90
24412;DHT22;12544;46.760;15.942;2023-04-25T00:08:28;9.60;99.90
24412;DHT22;12544;46.760;15.942;2023-04-25T00:10:54;9.50;99.90
24412;DHT22;12544;46.760;15.942;2023-04-25T00:13:20;9.50;99.90
24412;DHT22;12544;46.760;15.942;2023-04-25T00:15:46;9.40;99.90
24412;DHT22;12544;46.760;15.942;2023-04-25T00:18:14;9.40;99.90
24412;DHT22;12544;46.760;15.942;2023-04-25T00:20:39;9.40;99.90
24412;DHT22;12544;46.760;15.942;2023-04-25T00:23:05;9.30;99.90
24412;DHT22;12544;46.760;15.942;2023-04-25T00:25:31;9.30;99.90
24412;DHT22;12544;46.760;15.942;2023-04-25T00:27:57;9.30;99.90
24412;DHT22;12544;46.760;15.942;2023-04-25T00:30:22;9.30;99.90
24412;DHT22;12544;46.760;15.942;2023-04-25T00:32:48;9.20;99.90
24412;DHT22;12544;46.760;15.942;2023-04-25T00:35:14;9.10;99.90
24412;DHT22;12544;46.760;15.942;2023-04-25T00:37:40;9.10;99.90
24412;DHT22;12544;46.760;15.942;2023-04-25T00:40:06;9.10;99.90
24412;DHT22;12544;46.760;15.942;2023-04-25T00:42:33;9.20;99.90
24412;DHT22;12544;46.760;15.942;2023-04-25T00:45:00;9.20;99.90
24412;DHT22;12544;46.760;15.942;2023-04-25T00:47:27;9.30;99.90
24412;DHT22;12544;46.760;15.942;2023-04-25T00:49:53;9.30;99.90
24412;DHT22;12544;46.760;15.942;2023-04-25T00:52:19;9.40;99.90
24412;DHT22;12544;46.760;15.942;2023-04-25T00:54:45;9.40;99.90
24412;DHT22;12544;46.760;15.942;2023-04-25T00:57:11;9.50;99.90
24412;DHT22;12544;46.760;15.942;2023-04-25T00:59:37;9.40;99.90
24412;DHT22;12544;46.760;15.942;2023-04-25T01:02:04;9.40;99.90
24412;DHT22;12544;46.760;15.942;2023-04-25T01:04:30;9.50;99.90
24412;DHT22;12544;46.760;15.942;2023-04-25T01:06:56;9.40;99.90
24412;DHT22;12544;46.760;15.942;2023-04-25T01:09:24;9.40;99.90
24412;DHT22;12544;46.760;15.942;2023-04-25T01:11:50;9.40;99.90
24412;DHT22;12544;46.760;15.942;2023-04-25T01:14:16;9.20;99.90
24412;DHT22;12544;46.760;15.942;2023-04-25T01:16:42;9.20;99.90
24412;DHT22;12544;46.760;15.942;2023-04-25T01:19:09;9.20;99.90
24412;DHT22;12544;46.760;15.942;2023-04-25T01:21:38;9.20;99.90
24412;DHT22;12544;46.760;15.942;2023-04-25T01:24:04;9.10;99.90
24412;DHT22;12544;46.760;15.942;2023-04-25T01:26:31;9.10;99.90
24412;DHT22;12544;46.760;15.942;2023-04-25T01:28:57;9.00;99.90
24412;DHT22;12544;46.760;15.942;2023-04-25T01:31:23;9.00;99.90
24412;DHT22;12544;46.760;15.942;2023-04-25T01:33:49;9.00;99.90
24412;DHT22;12544;46.760;15.942;2023-04-25T01:36:15;9.00;99.90
24412;DHT22;12544;46.760;15.942;2023-04-25T01:38:41;9.00;99.90
24412;DHT22;12544;46.760;15.942;2023-04-25T01:41:07;9.00;99.90
24412;DHT22;12544;46.760;15.942;2023-04-25T01:43:33;9.00;99.90
24412;DHT22;12544;46.760;15.942;2023-04-25T01:45:59;9.00;99.90
24412;DHT22;12544;46.760;15.942;2023-04-25T01:48:25;9.00;99.90
24412;DHT22;12544;46.760;15.942;2023-04-25T01:50:51;9.00;99.90
24412;DHT22;12544;46.760;15.942;2023-04-25T01:53:16;9.00;99.90
24412;DHT22;12544;46.760;15.942;2023-04-25T01:55:42;9.10;99.90
24412;DHT22;12544;46.760;15.942;2023-04-25T01:58:08;9.10;99.90
24412;DHT22;12544;46.760;15.942;2023-04-25T02:00:36;9.20;99.90
24412;DHT22;12544;46.760;15.942;2023-04-25T02:03:04;9.20;99.90
24412;DHT22;12544;46.760;15.942;2023-04-25T02:05:40;9.20;99.90
24412;DHT22;12544;46.760;15.942;2023-04-25T02:08:06;9.20;99.90
24412;DHT22;12544;46.760;15.942;2023-04-25T02:10:33;9.20;99.90
24412;DHT22;12544;46.760;15.942;2023-04-25T02:12:58;9.30;99.90
24412;DHT22;12544;46.760;15.942;2023-04-25T02:15:24;9.30;99.90
24412;DHT22;12544;46.760;15.942;2023-04-25T02:17:50;9.30;99.90
24412;DHT22;12544;46.760;15.942;2023-04-25T02:20:18;9.30;99.90
24412;DHT22;12544;46.760;15.942;2023-04-25T02:22:46;9.30;99.90
24412;DHT22;12544;46.760;15.942;2023-04-25T02:25:12;9.30;99.90
24412;DHT22;12544;46.760;15.942;2023-04-25T02:27:38;9.30;99.90
24412;DHT22;12544;46.760;15.942;2023-04-25T02:30:05;9.30;99.90
24412;DHT22;12544;46.760;15.942;2023-04-25T02:32:32;9.20;99.90
24412;DHT22;12544;46.760;15.942;2023-04-25T02:35:02;9.20;99.90
24412;DHT22;12544;46.760;15.942;2023-04-25T02:37:38;9.20;99.90
24412;DHT22;12544;46.760;15.942;2023-04-25T02:40:04;9.20;99.90
24412;DHT22;12544;46.760;15.942;2023-04-25T02:42:30;9.20;99.90
24412;DHT22;12544;46.760;15.942;2023-04-25T02:44:56;9.20;99.90
24412;DHT22;12544;46.760;15.942;2023-04-25T02:47:21;9.20;99.90
24412;DHT22;12544;46.760;15.942;2023-04-25T02:49:47;9.10;99.90
24412;DHT22;12544;46.760;15.942;2023-04-25T02:52:13;9.00;99.90
24412;DHT22;12544;46.760;15.942;2023-04-25T02:54:40;8.90;99.90
24412;DHT22;12544;46.760;15.942;2023-04-25T02:57:06;8.90;99.90
24412;DHT22;12544;46.760;15.942;2023-04-25T02:59:32;8.90;99.90
24412;DHT22;12544;46.760;15.942;2023-04-25T03:01:57;8.80;99.90
24412;DHT22;12544;46.760;15.942;2023-04-25T03:04:23;8.80;99.90
24412;DHT22;12544;46.760;15.942;2023-04-25T03:06:52;8.80;99.90
24412;DHT22;12544;46.760;15.942;2023-04-25T03:09:20;8.80;99.90
24412;DHT22;12544;46.760;15.942;2023-04-25T03:11:46;8.80;99.90
24412;DHT22;12544;46.760;15.942;2023-04-25T03:14:12;8.80;99.90
24412;DHT22;12544;46.760;15.942;2023-04-25T03:16:38;8.80;99.90
24412;DHT22;12544;46.760;15.942;2023-04-25T03:19:04;8.80;99.90
24412;DHT22;12544;46.760;15.942;2023-04-25T03:21:32;8.80;99.90
24412;DHT22;12544;46.760;15.942;2023-04-25T03:23:58;8.70;99.90
24412;DHT22;12544;46.760;15.942;2023-04-25T03:26:30;8.70;99.90
24412;DHT22;12544;46.760;15.942;2023-04-25T03:28:56;8.70;99.90
24412;DHT22;12544;46.760;15.942;2023-04-25T03:31:21;8.70;99.90
24412;DHT22;12544;46.760;15.942;2023-04-25T03:33:47;8.60;99.90
24412;DHT22;12544;46.760;15.942;2023-04-25T03:36:13;8.60;99.90
24412;DHT22;12544;46.760;15.942;2023-04-25T03:38:39;8.60;99.90
24412;DHT22;12544;46.760;15.942;2023-04-25T03:41:07;8.60;99.90
24412;DHT22;12544;46.760;15.942;2023-04-25T03:43:32;8.60;99.90
24412;DHT22;12544;46.760;15.942;2023-04-25T03:45:58;8.60;99.90
24412;DHT22;12544;46.760;15.942;2023-04-25T03:48:24;8.60;99.90
24412;DHT22;12544;46.760;15.942;2023-04-25T03:50:51;8.60;99.90
24412;DHT22;12544;46.760;15.942;2023-04-25T03:53:17;8.60;99.90
24412;DHT22;12544;46.760;15.942;2023-04-25T03:55:42;8.50;99.90
24412;DHT22;12544;46.760;15.942;2023-04-25T03:58:08;8.50;99.90
24412;DHT22;12544;46.760;15.942;2023-04-25T04:00:35;8.50;99.90
24412;DHT22;12544;46.760;15.942;2023-04-25T04:03:00;8.50;99.90
24412;DHT22;12544;46.760;15.942;2023-04-25T04:05:26;8.50;99.90
24412;DHT22;12544;46.760;15.942;2023-04-25T04:07:53;8.40;99.90
24412;DHT22;12544;46.760;15.942;2023-04-25T04:10:18;8.30;99.90
24412;DHT22;12544;46.760;15.942;2023-04-25T04:12:44;8.30;99.90
24412;DHT22;12544;46.760;15.942;2023-04-25T04:15:10;8.20;99.90
24412;DHT22;12544;46.760;15.942;2023-04-25T04:17:36;8.10;99.90
24412;DHT22;12544;46.760;15.942;2023-04-25T04:20:02;8.00;99.90
24412;DHT22;12544;46.760;15.942;2023-04-25T04:22:28;8.00;99.90
24412;DHT22;12544;46.760;15.942;2023-04-25T04:24:54;8.00;99.90
24412;DHT22;12544;46.760;15.942;2023-04-25T04:27:24;8.00;99.90
24412;DHT22;12544;46.760;15.942;2023-04-25T04:29:49;7.90;99.90
24412;DHT22;12544;46.760;15.942;2023-04-25T04:32:17;7.90;99.90
24412;DHT22;12544;46.760;15.942;2023-04-25T04:34:43;7.80;99.90
24412;DHT22;12544;46.760;15.942;2023-04-25T04:37:10;7.80;99.90
24412;DHT22;12544;46.760;15.942;2023-04-25T04:39:36;7.70;99.90
24412;DHT22;12544;46.760;15.942;2023-04-25T04:42:02;7.70;99.90
24412;DHT22;12544;46.760;15.942;2023-04-25T04:44:29;7.70;99.90
24412;DHT22;12544;46.760;15.942;2023-04-25T04:46:54;7.70;99.90
24412;DHT22;12544;46.760;15.942;2023-04-25T04:49:21;7.80;99.90
24412;DHT22;12544;46.760;15.942;2023-04-25T04:51:47;7.80;99.90
24412;DHT22;12544;46.760;15.942;2023-04-25T04:54:13;7.80;99.90
24412;DHT22;12544;46.760;15.942;2023-04-25T04:56:38;7.80;99.90
24412;DHT22;12544;46.760;15.942;2023-04-25T04:59:04;7.90;99.90
24412;DHT22;12544;46.760;15.942;2023-04-25T05:01:30;7.90;99.90
24412;DHT22;12544;46.760;15.942;2023-04-25T05:03:56;8.00;99.90
24412;DHT22;12544;46.760;15.942;2023-04-25T05:06:26;8.00;99.90
24412;DHT22;12544;46.760;15.942;2023-04-25T05:08:54;8.10;99.90
24412;DHT22;12544;46.760;15.942;2023-04-25T05:11:20;8.10;99.90
24412;DHT22;12544;46.760;15.942;2023-04-25T05:13:46;8.10;99.90
24412;DHT22;12544;46.760;15.942;2023-04-25T05:16:12;8.10;99.90
24412;DHT22;12544;46.760;15.942;2023-04-25T05:18:39;8.20;99.90
24412;DHT22;12544;46.760;15.942;2023-04-25T05:21:05;8.20;99.90
24412;DHT22;12544;46.760;15.942;2023-04-25T05:23:32;8.30;99.90
24412;DHT22;12544;46.760;15.942;2023-04-25T05:25:58;8.30;99.90
24412;DHT22;12544;46.760;15.942;2023-04-25T05:28:24;8.30;99.90
24412;DHT22;12544;46.760;15.942;2023-04-25T05:30:50;8.40;99.90
24412;DHT22;12544;46.760;15.942;2023-04-25T05:33:16;8.40;99.90
24412;DHT22;12544;46.760;15.942;2023-04-25T05:35:42;8.40;99.90
24412;DHT22;12544;46.760;15.942;2023-04-25T05:38:07;8.50;99.90
24412;DHT22;12544;46.760;15.942;2023-04-25T05:40:33;8.60;99.90
24412;DHT22;12544;46.760;15.942;2023-04-25T05:42:59;8.70;99.90
24412;DHT22;12544;46.760;15.942;2023-04-25T05:45:25;8.70;99.90
24412;DHT22;12544;46.760;15.942;2023-04-25T05:47:50;8.80;99.90
24412;DHT22;12544;46.760;15.942;2023-04-25T05:50:16;8.90;99.90
24412;DHT22;12544;46.760;15.942;2023-04-25T05:52:42;9.00;99.90
24412;DHT22;12544;46.760;15.942;2023-04-25T05:55:08;9.00;99.90
24412;DHT22;12544;46.760;15.942;2023-04-25T05:57:34;9.10;99.90
24412;DHT22;12544;46.760;15.942;2023-04-25T06:00:07;9.20;99.90
24412;DHT22;12544;46.760;15.942;2023-04-25T06:02:34;9.20;99.90
24412;DHT22;12544;46.760;15.942;2023-04-25T06:05:00;9.20;99.90
24412;DHT22;12544;46.760;15.942;2023-04-25T06:07:29;9.30;99.90
24412;DHT22;12544;46.760;15.942;2023-04-25T06:09:55;9.40;99.90
24412;DHT22;12544;46.760;15.942;2023-04-25T06:12:21;9.40;99.90
24412;DHT22;12544;46.760;15.942;2023-04-25T06:14:47;9.50;99.90
24412;DHT22;12544;46.760;15.942;2023-04-25T06:17:16;9.60;99.90
24412;DHT22;12544;46.760;15.942;2023-04-25T06:19:41;9.60;99.90
24412;DHT22;12544;46.760;15.942;2023-04-25T06:22:07;9.70;99.90
24412;DHT22;12544;46.760;15.942;2023-04-25T06:24:33;9.80;99.90
24412;DHT22;12544;46.760;15.942;2023-04-25T06:26:58;9.90;99.90
24412;DHT22;12544;46.760;15.942;2023-04-25T06:29:24;10.00;99.90
24412;DHT22;12544;46.760;15.942;2023-04-25T06:31:50;10.10;99.90
24412;DHT22;12544;46.760;15.942;2023-04-25T06:34:15;10.10;99.90
24412;DHT22;12544;46.760;15.942;2023-04-25T06:36:41;10.20;99.90
24412;DHT22;12544;46.760;15.942;2023-04-25T06:39:07;10.30;99.90
24412;DHT22;12544;46.760;15.942;2023-04-25T06:41:38;10.40;99.90
24412;DHT22;12544;46.760;15.942;2023-04-25T06:44:04;10.50;99.90
24412;DHT22;12544;46.760;15.942;2023-04-25T06:46:29;10.60;99.90
24412;DHT22;12544;46.760;15.942;2023-04-25T06:48:55;10.70;99.90
24412;DHT22;12544;46.760;15.942;2023-04-25T06:51:20;10.80;99.90
24412;DHT22;12544;46.760;15.942;2023-04-25T06:53:46;10.90;99.90
24412;DHT22;12544;46.760;15.942;2023-04-25T06:56:12;11.00;99.90
24412;DHT22;12544;46.760;15.942;2023-04-25T06:58:37;11.10;99.90
24412;DHT22;12544;46.760;15.942;2023-04-25T07:01:03;11.20;99.90
24412;DHT22;12544;46.760;15.942;2023-04-25T07:03:29;11.30;99.90
24412;DHT22;12544;46.760;15.942;2023-04-25T07:05:54;11.40;99.90
24412;DHT22;12544;46.760;15.942;2023-04-25T07:08:20;11.50;99.90
24412;DHT22;12544;46.760;15.942;2023-04-25T07:10:46;11.60;99.90
24412;DHT22;12544;46.760;15.942;2023-04-25T07:13:12;11.70;99.90
24412;DHT22;12544;46.760;15.942;2023-04-25T07:15:38;11.80;99.90
24412;DHT22;12544;46.760;15.942;2023-04-25T07:18:03;11.90;99.90
24412;DHT22;12544;46.760;15.942;2023-04-25T07:20:29;12.10;99.90
24412;DHT22;12544;46.760;15.942;2023-04-25T07:22:56;12.20;99.90
24412;DHT22;12544;46.760;15.942;2023-04-25T07:25:22;12.30;99.90
24412;DHT22;12544;46.760;15.942;2023-04-25T07:27:48;12.40;99.90
24412;DHT22;12544;46.760;15.942;2023-04-25T07:30:14;12.50;99.90
24412;DHT22;12544;46.760;15.942;2023-04-25T07:32:39;12.60;99.90
24412;DHT22;12544;46.760;15.942;2023-04-25T07:35:05;12.70;99.90
24412;DHT22;12544;46.760;15.942;2023-04-25T07:37:35;12.80;99.90
24412;DHT22;12544;46.760;15.942;2023-04-25T07:40:03;12.90;99.90
24412;DHT22;12544;46.760;15.942;2023-04-25T07:42:29;13.10;99.90
24412;DHT22;12544;46.760;15.942;2023-04-25T07:44:55;13.20;99.90
24412;DHT22;12544;46.760;15.942;2023-04-25T07:47:21;13.30;99.90
24412;DHT22;12544;46.760;15.942;2023-04-25T07:49:47;13.50;99.90
24412;DHT22;12544;46.760;15.942;2023-04-25T07:52:13;13.60;99.90
24412;DHT22;12544;46.760;15.942;2023-04-25T07:54:38;13.60;99.90
24412;DHT22;12544;46.760;15.942;2023-04-25T07:57:04;13.70;99.90
24412;DHT22;12544;46.760;15.942;2023-04-25T07:59:32;13.80;99.90
24412;DHT22;12544;46.760;15.942;2023-04-25T08:01:57;13.90;99.90
24412;DHT22;12544;46.760;15.942;2023-04-25T08:04:24;14.00;99.90
24412;DHT22;12544;46.760;15.942;2023-04-25T08:06:50;14.20;99.90
24412;DHT22;12544;46.760;15.942;2023-04-25T08:09:16;14.30;99.90
24412;DHT22;12544;46.760;15.942;2023-04-25T08:11:42;14.40;99.90
24412;DHT22;12544;46.760;15.942;2023-04-25T08:14:08;14.40;99.90
24412;DHT22;12544;46.760;15.942;2023-04-25T08:16:33;14.40;99.90
24412;DHT22;12544;46.760;15.942;2023-04-25T08:18:59;14.50;99.90
24412;DHT22;12544;46.760;15.942;2023-04-25T08:21:25;14.60;99.90
24412;DHT22;12544;46.760;15.942;2023-04-25T08:23:52;14.60;99.90
24412;DHT22;12544;46.760;15.942;2023-04-25T08:26:18;14.70;99.90
24412;DHT22;12544;46.760;15.942;2023-04-25T08:28:46;14.80;99.90
24412;DHT22;12544;46.760;15.942;2023-04-25T08:31:12;14.80;99.90
24412;DHT22;12544;46.760;15.942;2023-04-25T08:33:38;15.00;99.90
24412;DHT22;12544;46.760;15.942;2023-04-25T08:36:03;15.20;99.90
24412;DHT22;12544;46.760;15.942;2023-04-25T08:38:29;15.30;99.90
24412;DHT22;12544;46.760;15.942;2023-04-25T08:41:00;15.50;99.90
24412;DHT22;12544;46.760;15.942;2023-04-25T08:43:27;15.60;99.90
24412;DHT22;12544;46.760;15.942;2023-04-25T08:45:59;15.60;98.40
24412;DHT22;12544;46.760;15.942;2023-04-25T08:48:27;15.70;97.40
24412;DHT22;12544;46.760;15.942;2023-04-25T08:50:55;15.70;95.70
24412;DHT22;12544;46.760;15.942;2023-04-25T08:53:29;15.70;97.90
24412;DHT22;12544;46.760;15.942;2023-04-25T08:55:57;16.00;95.30
24412;DHT22;12544;46.760;15.942;2023-04-25T08:58:23;16.20;93.50
24412;DHT22;12544;46.760;15.942;2023-04-25T09:00:50;16.30;91.10
24412;DHT22;12544;46.760;15.942;2023-04-25T09:03:17;16.30;89.50
24412;DHT22;12544;46.760;15.942;2023-04-25T09:05:42;16.20;92.70
24412;DHT22;12544;46.760;15.942;2023-04-25T09:08:08;16.10;91.30
24412;DHT22;12544;46.760;15.942;2023-04-25T09:10:35;15.90;87.80
24412;DHT22;12544;46.760;15.942;2023-04-25T09:15:46;15.70;90.40
24412;DHT22;12544;46.760;15.942;2023-04-25T09:18:12;15.70;90.70
24412;DHT22;12544;46.760;15.942;2023-04-25T09:20:44;15.70;90.90
24412;DHT22;12544;46.760;15.942;2023-04-25T09:23:09;15.70;90.00
24412;DHT22;12544;46.760;15.942;2023-04-25T09:25:36;15.70;90.70
24412;DHT22;12544;46.760;15.942;2023-04-25T09:28:05;15.70;90.90
24412;DHT22;12544;46.760;15.942;2023-04-25T09:30:32;15.70;91.70
24412;DHT22;12544;46.760;15.942;2023-04-25T09:33:07;15.70;91.40
24412;DHT22;12544;46.760;15.942;2023-04-25T09:35:39;15.70;93.60
24412;DHT22;12544;46.760;15.942;2023-04-25T09:38:13;15.80;93.00
24412;DHT22;12544;46.760;15.942;2023-04-25T09:40:43;15.90;90.20
24412;DHT22;12544;46.760;15.942;2023-04-25T09:43:23;15.90;90.40
24412;DHT22;12544;46.760;15.942;2023-04-25T09:45:50;16.10;91.30
24412;DHT22;12544;46.760;15.942;2023-04-25T09:48:25;15.90;94.70
24412;DHT22;12544;46.760;15.942;2023-04-25T09:51:18;16.10;91.50
24412;DHT22;12544;46.760;15.942;2023-04-25T09:53:46;16.40;90.70
24412;DHT22;12544;46.760;15.942;2023-04-25T09:56:15;17.00;85.00
24412;DHT22;12544;46.760;15.942;2023-04-25T09:58:41;17.50;85.30
24412;DHT22;12544;46.760;15.942;2023-04-25T10:01:09;17.80;80.80
24412;DHT22;12544;46.760;15.942;2023-04-25T10:03:37;17.50;76.10
24412;DHT22;12544;46.760;15.942;2023-04-25T10:06:12;17.40;86.90
24412;DHT22;12544;46.760;15.942;2023-04-25T10:08:40;17.10;81.00
24412;DHT22;12544;46.760;15.942;2023-04-25T10:11:08;17.10;80.10
24412;DHT22;12544;46.760;15.942;2023-04-25T10:13:35;17.10;84.60
24412;DHT22;12544;46.760;15.942;2023-04-25T10:16:03;16.90;86.00
24412;DHT22;12544;46.760;15.942;2023-04-25T10:18:30;17.10;82.80
24412;DHT22;12544;46.760;15.942;2023-04-25T10:21:00;17.30;81.70
24412;DHT22;12544;46.760;15.942;2023-04-25T10:23:27;17.60;81.60
24412;DHT22;12544;46.760;15.942;2023-04-25T10:25:54;17.80;76.90
24412;DHT22;12544;46.760;15.942;2023-04-25T10:28:26;18.00;79.20
24412;DHT22;12544;46.760;15.942;2023-04-25T10:31:04;18.30;75.60
24412;DHT22;12544;46.760;15.942;2023-04-25T10:33:35;18.60;72.00
24412;DHT22;12544;46.760;15.942;2023-04-25T10:36:17;18.80;73.20
24412;DHT22;12544;46.760;15.942;2023-04-25T10:38:43;19.10;73.80
24412;DHT22;12544;46.760;15.942;2023-04-25T10:41:11;19.30;76.50
24412;DHT22;12544;46.760;15.942;2023-04-25T10:43:41;19.30;73.30
24412;DHT22;12544;46.760;15.942;2023-04-25T10:46:23;19.40;63.90
24412;DHT22;12544;46.760;15.942;2023-04-25T10:49:00;19.40;67.00
24412;DHT22;12544;46.760;15.942;2023-04-25T10:51:29;19.10;70.50
24412;DHT22;12544;46.760;15.942;2023-04-25T10:54:01;18.40;67.40
24412;DHT22;12544;46.760;15.942;2023-04-25T11:01:40;18.70;78.40
24412;DHT22;12544;46.760;15.942;2023-04-25T11:04:06;19.00;71.00
24412;DHT22;12544;46.760;15.942;2023-04-25T11:09:23;20.20;67.30
24412;DHT22;12544;46.760;15.942;2023-04-25T11:11:59;20.70;61.60
24412;DHT22;12544;46.760;15.942;2023-04-25T11:14:26;20.90;61.10
24412;DHT22;12544;46.760;15.942;2023-04-25T11:16:56;20.80;64.00
24412;DHT22;12544;46.760;15.942;2023-04-25T11:19:23;20.70;63.50
24412;DHT22;12544;46.760;15.942;2023-04-25T11:21:49;20.70;62.40
24412;DHT22;12544;46.760;15.942;2023-04-25T11:24:16;20.50;63.50
24412;DHT22;12544;46.760;15.942;2023-04-25T11:26:43;19.80;62.60
24412;DHT22;12544;46.760;15.942;2023-04-25T11:29:10;19.50;67.40
24412;DHT22;12544;46.760;15.942;2023-04-25T11:31:36;19.60;71.60
24412;DHT22;12544;46.760;15.942;2023-04-25T11:34:01;19.90;74.00
24412;DHT22;12544;46.760;15.942;2023-04-25T11:36:28;20.10;66.10
24412;DHT22;12544;46.760;15.942;2023-04-25T11:38:54;20.10;61.10
24412;DHT22;12544;46.760;15.942;2023-04-25T11:41:20;19.90;63.50
24412;DHT22;12544;46.760;15.942;2023-04-25T11:43:48;19.90;62.30
24412;DHT22;12544;46.760;15.942;2023-04-25T11:46:14;19.90;62.00
24412;DHT22;12544;46.760;15.942;2023-04-25T11:48:41;19.80;59.30
24412;DHT22;12544;46.760;15.942;2023-04-25T11:54:29;18.90;68.20
24412;DHT22;12544;46.760;15.942;2023-04-25T11:56:54;18.50;63.00
24412;DHT22;12544;46.760;15.942;2023-04-25T11:59:25;18.00;68.60
24412;DHT22;12544;46.760;15.942;2023-04-25T12:01:51;17.70;70.40
24412;DHT22;12544;46.760;15.942;2023-04-25T12:04:20;17.40;70.30
24412;DHT22;12544;46.760;15.942;2023-04-25T12:06:48;17.90;67.70
24412;DHT22;12544;46.760;15.942;2023-04-25T12:09:19;18.10;65.20
24412;DHT22;12544;46.760;15.942;2023-04-25T12:11:54;18.80;68.30
24412;DHT22;12544;46.760;15.942;2023-04-25T12:14:22;19.20;60.90
24412;DHT22;12544;46.760;15.942;2023-04-25T12:16:50;19.30;60.30
24412;DHT22;12544;46.760;15.942;2023-04-25T12:19:17;19.50;59.70
24412;DHT22;12544;46.760;15.942;2023-04-25T12:21:44;19.90;57.40
24412;DHT22;12544;46.760;15.942;2023-04-25T12:24:15;20.30;57.30
24412;DHT22;12544;46.760;15.942;2023-04-25T12:27:04;20.70;57.30
24412;DHT22;12544;46.760;15.942;2023-04-25T12:29:33;21.10;62.10
24412;DHT22;12544;46.760;15.942;2023-04-25T12:31:59;21.30;56.00
24412;DHT22;12544;46.760;15.942;2023-04-25T12:34:27;21.30;56.60
24412;DHT22;12544;46.760;15.942;2023-04-25T12:36:54;21.40;56.60
24412;DHT22;12544;46.760;15.942;2023-04-25T12:39:24;21.30;54.90
24412;DHT22;12544;46.760;15.942;2023-04-25T12:41:51;21.20;54.40
24412;DHT22;12544;46.760;15.942;2023-04-25T12:44:20;21.20;53.20
24412;DHT22;12544;46.760;15.942;2023-04-25T12:46:47;21.30;49.80
24412;DHT22;12544;46.760;15.942;2023-04-25T12:49:13;21.20;50.20
24412;DHT22;12544;46.760;15.942;2023-04-25T12:51:44;21.10;55.80
24412;DHT22;12544;46.760;15.942;2023-04-25T12:54:10;21.00;58.20
24412;DHT22;12544;46.760;15.942;2023-04-25T12:56:36;20.60;57.70
24412;DHT22;12544;46.760;15.942;2023-04-25T12:59:02;20.70;58.10
24412;DHT22;12544;46.760;15.942;2023-04-25T13:01:30;20.70;55.80
24412;DHT22;12544;46.760;15.942;2023-04-25T13:03:56;20.50;56.50
24412;DHT22;12544;46.760;15.942;2023-04-25T13:06:22;20.30;55.20
24412;DHT22;12544;46.760;15.942;2023-04-25T13:08:48;20.10;58.80
24412;DHT22;12544;46.760;15.942;2023-04-25T13:11:14;19.90;55.90
24412;DHT22;12544;46.760;15.942;2023-04-25T13:13:43;19.70;57.70
24412;DHT22;12544;46.760;15.942;2023-04-25T13:16:09;19.50;61.20
24412;DHT22;12544;46.760;15.942;2023-04-25T13:18:35;19.00;58.30
24412;DHT22;12544;46.760;15.942;2023-04-25T13:21:01;18.70;60.40
24412;DHT22;12544;46.760;15.942;2023-04-25T13:23:28;18.40;61.60
24412;DHT22;12544;46.760;15.942;2023-04-25T13:25:55;17.70;64.20
24412;DHT22;12544;46.760;15.942;2023-04-25T13:28:23;17.20;65.00
24412;DHT22;12544;46.760;15.942;2023-04-25T13:30:49;16.60;67.00
24412;DHT22;12544;46.760;15.942;2023-04-25T13:33:15;16.30;71.10
24412;DHT22;12544;46.760;15.942;2023-04-25T13:35:41;16.00;72.40
24412;DHT22;12544;46.760;15.942;2023-04-25T13:38:07;15.80;77.70
24412;DHT22;12544;46.760;15.942;2023-04-25T13:40:34;15.50;78.90
24412;DHT22;12544;46.760;15.942;2023-04-25T13:43:01;15.20;80.00
24412;DHT22;12544;46.760;15.942;2023-04-25T13:45:26;15.00;79.90
24412;DHT22;12544;46.760;15.942;2023-04-25T13:47:52;15.00;78.50
24412;DHT22;12544;46.760;15.942;2023-04-25T13:50:18;15.00;78.50
24412;DHT22;12544;46.760;15.942;2023-04-25T13:52:43;15.20;73.70
24412;DHT22;12544;46.760;15.942;2023-04-25T13:55:10;15.60;76.80
24412;DHT22;12544;46.760;15.942;2023-04-25T13:57:36;15.90;74.60
24412;DHT22;12544;46.760;15.942;2023-04-25T14:00:19;16.20;73.40
24412;DHT22;12544;46.760;15.942;2023-04-25T14:02:45;16.10;71.90
24412;DHT22;12544;46.760;15.942;2023-04-25T14:05:11;16.00;72.20
24412;DHT22;12544;46.760;15.942;2023-04-25T14:07:37;15.80;73.40
24412;DHT22;12544;46.760;15.942;2023-04-25T14:10:03;15.80;76.10
24412;DHT22;12544;46.760;15.942;2023-04-25T14:12:30;16.00;75.10
24412;DHT22;12544;46.760;15.942;2023-04-25T14:14:56;16.20;70.70
24412;DHT22;12544;46.760;15.942;2023-04-25T14:17:21;16.50;71.00
24412;DHT22;12544;46.760;15.942;2023-04-25T14:19:47;16.70;68.70
24412;DHT22;12544;46.760;15.942;2023-04-25T14:22:14;16.90;68.40
24412;DHT22;12544;46.760;15.942;2023-04-25T14:24:40;16.90;70.60
24412;DHT22;12544;46.760;15.942;2023-04-25T14:27:06;16.90;71.50
24412;DHT22;12544;46.760;15.942;2023-04-25T14:29:32;16.90;72.30
24412;DHT22;12544;46.760;15.942;2023-04-25T14:31:57;16.90;72.40
24412;DHT22;12544;46.760;15.942;2023-04-25T14:34:24;16.90;70.30
24412;DHT22;12544;46.760;15.942;2023-04-25T14:36:51;16.80;73.60
24412;DHT22;12544;46.760;15.942;2023-04-25T14:39:17;16.70;70.20
24412;DHT22;12544;46.760;15.942;2023-04-25T14:41:43;16.70;71.40
24412;DHT22;12544;46.760;15.942;2023-04-25T14:44:09;16.60;72.60
24412;DHT22;12544;46.760;15.942;2023-04-25T14:46:35;16.70;75.70
24412;DHT22;12544;46.760;15.942;2023-04-25T14:49:01;16.80;74.80
24412;DHT22;12544;46.760;15.942;2023-04-25T14:51:27;16.80;74.20
24412;DHT22;12544;46.760;15.942;2023-04-25T14:53:53;17.00;77.00
24412;DHT22;12544;46.760;15.942;2023-04-25T14:56:19;17.00;75.20
24412;DHT22;12544;46.760;15.942;2023-04-25T14:58:44;17.00;73.80
24412;DHT22;12544;46.760;15.942;2023-04-25T15:01:11;17.10;75.90
24412;DHT22;12544;46.760;15.942;2023-04-25T15:03:39;17.10;77.60
24412;DHT22;12544;46.760;15.942;2023-04-25T15:06:05;17.20;75.50
24412;DHT22;12544;46.760;15.942;2023-04-25T15:08:31;17.00;72.60
24412;DHT22;12544;46.760;15.942;2023-04-25T15:10:58;17.00;72.60
24412;DHT22;12544;46.760;15.942;2023-04-25T15:13:24;17.20;73.40
24412;DHT22;12544;46.760;15.942;2023-04-25T15:15:50;17.40;71.30
24412;DHT22;12544;46.760;15.942;2023-04-25T15:18:20;17.40;73.40
24412;DHT22;12544;46.760;15.942;2023-04-25T15:20:53;17.40;75.00
24412;DHT22;12544;46.760;15.942;2023-04-25T15:23:19;17.50;73.20
24412;DHT22;12544;46.760;15.942;2023-04-25T15:25:45;17.50;74.40
24412;DHT22;12544;46.760;15.942;2023-04-25T15:28:11;17.60;73.50
24412;DHT22;12544;46.760;15.942;2023-04-25T15:30:40;17.70;71.70
24412;DHT22;12544;46.760;15.942;2023-04-25T15:33:05;17.50;70.00
24412;DHT22;12544;46.760;15.942;2023-04-25T15:35:31;17.50;71.60